Time;durP1;ratioP1;P1;durP2;ratioP2;P2;SDS_P1;SDS_P2;PMS_P1;PMS_P2;Temp;Humidity;BMP_temperature;BMP_pressure;BME280_temperature;BME280_humidity;BME280_pressure;Samples;Min_cycle;Max_cycle;Signal;HPM_P1;HPM_P2
2022/04/26 03:37:45;;;;;;;4.55;4.00;;;20.60;46.90;;;;;;1810842;77;21162;-78
2022/04/26 03:40:12;;;;;;;4.15;3.15;;;20.60;46.90;;;;;;1811052;78;22243;-77
2022/04/26 03:42:39;;;;;;;4.72;4.08;;;20.60;46.90;;;;;;1810971;78;21087;-76
2022/04/26 03:45:07;;;;;;;3.62;3.10;;;20.60;46.90;;;;;;1815649;78;21621;-76
2022/04/26 03:47:34;;;;;;;4.40;4.00;;;20.60;46.90;;;;;;1840821;77;21136;-76
2022/04/26 03:50:01;;;;;;;4.62;3.90;;;20.60;46.90;;;;;;1841556;78;21108;-75
2022/04/26 03:52:29;;;;;;;4.33;3.65;;;20.60;47.00;;;;;;1844792;77;21200;-77
2022/04/26 03:54:56;;;;;;;6.15;4.10;;;20.60;47.00;;;;;;1846958;77;21124;-76
2022/04/26 03:57:23;;;;;;;5.10;3.75;;;20.60;47.00;;;;;;1847007;77;21116;-76
2022/04/26 03:59:51;;;;;;;4.47;3.75;;;20.60;46.90;;;;;;1847055;77;21658;-76
2022/04/26 04:02:19;;;;;;;4.25;3.60;;;20.60;47.00;;;;;;1846992;77;21116;-76
2022/04/26 04:04:46;;;;;;;4.97;4.03;;;20.50;46.90;;;;;;1846713;77;21114;-76
2022/04/26 04:07:14;;;;;;;5.10;3.80;;;20.60;46.90;;;;;;1847053;77;21100;-76
2022/04/26 04:09:41;;;;;;;4.28;3.87;;;20.60;47.00;;;;;;1846996;77;21526;-77
2022/04/26 04:12:09;;;;;;;4.42;4.00;;;20.60;47.00;;;;;;1846947;77;21137;-78
2022/04/26 04:14:36;;;;;;;4.85;4.00;;;20.60;47.00;;;;;;1846730;77;21190;-76
2022/04/26 04:17:04;;;;;;;5.12;3.60;;;20.50;46.90;;;;;;1846197;75;21097;-76
2022/04/26 04:19:32;;;;;;;4.10;3.62;;;20.60;46.90;;;;;;1815557;79;21037;-77
2022/04/26 04:22:00;;;;;;;4.75;3.90;;;20.50;46.90;;;;;;1816103;79;21148;-76
2022/04/26 04:24:27;;;;;;;4.50;3.67;;;20.50;46.90;;;;;;1832959;77;21104;-76
2022/04/26 04:26:55;;;;;;;5.22;4.30;;;20.50;46.90;;;;;;1846514;77;21556;-77
2022/04/26 04:29:22;;;;;;;4.17;3.50;;;20.60;46.90;;;;;;1846987;77;21100;-76
2022/04/26 04:31:49;;;;;;;4.55;3.90;;;20.50;46.90;;;;;;1865765;76;21548;-76
2022/04/26 04:34:17;;;;;;;6.42;4.33;;;20.50;46.90;;;;;;1877485;75;21200;-78
2022/04/26 04:36:44;;;;;;;4.17;3.62;;;20.50;46.90;;;;;;1877930;76;21115;-78
2022/04/26 04:39:19;;;;;;;4.30;3.75;;;20.50;46.80;;;;;;1877549;76;21204;-76
2022/04/26 04:41:41;;;;;;;4.62;4.20;;;20.50;47.40;;;;;;1877558;75;21153;-76
2022/04/26 04:44:08;;;;;;;4.17;3.77;;;20.50;46.90;;;;;;1877746;76;21879;-78
2022/04/26 04:46:35;;;;;;;6.55;4.28;;;20.50;46.90;;;;;;1840828;76;21112;-77
2022/04/26 04:49:03;;;;;;;10.30;3.90;;;20.50;46.90;;;;;;1840651;77;21591;-76
2022/04/26 04:51:30;;;;;;;4.58;3.72;;;20.60;47.00;;;;;;1846558;77;21120;-76
2022/04/26 04:53:57;;;;;;;4.90;3.87;;;20.60;47.00;;;;;;1846505;76;21148;-76
2022/04/26 04:56:26;;;;;;;4.47;3.90;;;20.60;46.90;;;;;;1846775;77;21109;-78
2022/04/26 04:58:53;;;;;;;7.10;4.35;;;20.60;47.00;;;;;;1846495;77;21194;-76
2022/04/26 05:01:21;;;;;;;4.15;3.50;;;20.60;47.00;;;;;;1859801;76;21087;-76
2022/04/26 05:03:48;;;;;;;5.85;3.55;;;20.60;47.00;;;;;;1878020;76;21580;-77
2022/04/26 05:06:16;;;;;;;4.95;3.98;;;20.60;47.00;;;;;;1878003;76;21371;-77
2022/04/26 05:08:44;;;;;;;4.97;4.22;;;20.50;46.90;;;;;;1878389;76;21103;-78
2022/04/26 05:11:11;;;;;;;5.35;3.80;;;20.50;46.90;;;;;;1860282;76;21118;-76
2022/04/26 05:13:38;;;;;;;5.47;4.20;;;20.50;46.90;;;;;;1844004;78;21105;-75
2022/04/26 05:16:06;;;;;;;5.45;3.90;;;20.50;46.90;;;;;;1845106;78;21189;-77
2022/04/26 05:18:33;;;;;;;10.00;4.03;;;20.60;47.00;;;;;;1845312;77;21077;-76
2022/04/26 05:21:00;;;;;;;5.60;4.20;;;20.50;46.90;;;;;;1846456;77;21793;-76
2022/04/26 05:26:13;;;;;;;10.53;4.75;;;20.50;46.90;;;;;;1816049;79;21215;-77
2022/04/26 05:28:40;;;;;;;8.23;4.15;;;20.50;46.90;;;;;;1816491;79;21108;-77
2022/04/26 05:31:08;;;;;;;6.35;4.17;;;20.50;46.80;;;;;;1826205;77;21822;-77
2022/04/26 05:33:35;;;;;;;8.23;4.65;;;20.50;46.80;;;;;;1846412;77;21152;-77
2022/04/26 05:36:03;;;;;;;4.92;3.92;;;20.50;46.90;;;;;;1846588;77;21081;-77
2022/04/26 05:38:30;;;;;;;5.80;3.75;;;20.50;46.80;;;;;;1846449;77;21074;-76
2022/04/26 05:40:57;;;;;;;6.47;4.28;;;20.50;46.80;;;;;;1842393;77;21696;-76
2022/04/26 05:43:25;;;;;;;5.78;4.15;;;20.50;46.80;;;;;;1830002;77;21021;-76
2022/04/26 05:45:52;;;;;;;7.37;4.78;;;20.50;46.80;;;;;;1816621;78;21554;-76
2022/04/26 05:48:19;;;;;;;5.80;4.35;;;20.50;46.80;;;;;;1831992;77;21042;-77
2022/04/26 05:50:47;;;;;;;5.30;4.30;;;20.50;46.80;;;;;;1846986;77;21064;-76
2022/04/26 05:53:14;;;;;;;9.05;4.30;;;20.50;46.80;;;;;;1845249;76;21810;-76
2022/04/26 05:55:41;;;;;;;6.47;4.60;;;20.50;46.80;;;;;;1843587;77;21124;-77
2022/04/26 05:58:10;;;;;;;11.90;4.95;;;20.50;46.90;;;;;;1844104;77;21554;-77
2022/04/26 06:00:38;;;;;;;15.60;5.33;;;20.50;47.00;;;;;;1844222;77;21156;-76
2022/04/26 06:03:05;;;;;;;15.98;4.78;;;20.40;47.00;;;;;;1826567;77;21093;-76
2022/04/26 06:05:32;;;;;;;10.50;4.70;;;20.50;46.90;;;;;;1830146;77;21504;-77
2022/04/26 06:08:00;;;;;;;14.78;4.70;;;20.50;46.90;;;;;;1813064;79;21133;-78
2022/04/26 06:10:28;;;;;;;14.63;4.90;;;20.50;46.90;;;;;;1813808;79;21113;-76
2022/04/26 06:12:55;;;;;;;11.15;5.12;;;20.50;46.80;;;;;;1813939;78;21149;-77
2022/04/26 06:15:23;;;;;;;12.33;5.15;;;20.50;46.80;;;;;;1813423;79;21141;-76
2022/04/26 06:17:50;;;;;;;12.60;5.40;;;20.60;46.90;;;;;;1814229;79;21096;-76
2022/04/26 06:20:17;;;;;;;11.68;5.15;;;20.50;46.80;;;;;;1814305;77;21123;-75
2022/04/26 06:22:45;;;;;;;10.30;5.25;;;20.50;46.80;;;;;;1827114;77;21755;-76
2022/04/26 06:25:12;;;;;;;6.80;4.45;;;20.60;46.90;;;;;;1844550;78;21096;-76
2022/04/26 06:27:39;;;;;;;12.33;5.40;;;20.50;46.80;;;;;;1844164;76;21567;-76
2022/04/26 06:30:07;;;;;;;7.50;4.75;;;20.50;46.80;;;;;;1844072;78;21112;-76
2022/04/26 06:32:34;;;;;;;7.15;5.20;;;20.50;46.80;;;;;;1816117;77;21180;-76
2022/04/26 06:35:01;;;;;;;11.48;5.17;;;20.60;46.90;;;;;;1813546;79;21178;-76
2022/04/26 06:37:29;;;;;;;11.22;4.97;;;20.50;46.80;;;;;;1813996;78;21093;-77
2022/04/26 06:39:57;;;;;;;11.50;5.58;;;20.50;46.80;;;;;;1826588;78;21116;-78
2022/04/26 06:42:24;;;;;;;11.93;5.42;;;20.60;46.90;;;;;;1826856;78;21112;-75
2022/04/26 06:44:51;;;;;;;7.05;5.17;;;20.50;46.80;;;;;;1813148;77;22366;-76
2022/04/26 06:47:19;;;;;;;11.40;4.33;;;20.50;46.80;;;;;;1816070;77;21119;-75
2022/04/26 06:49:46;;;;;;;6.30;5.10;;;20.50;46.80;;;;;;1844188;77;21530;-76
2022/04/26 06:52:13;;;;;;;13.00;5.08;;;20.60;46.80;;;;;;1835880;77;21222;-77
2022/04/26 06:54:40;;;;;;;9.85;5.65;;;20.50;46.80;;;;;;1815268;78;21714;-77
2022/04/26 06:57:08;;;;;;;7.40;4.87;;;20.50;46.80;;;;;;1822494;77;21077;-76
2022/04/26 06:59:35;;;;;;;10.80;5.17;;;20.60;46.90;;;;;;1836083;75;21539;-76
2022/04/26 07:02:02;;;;;;;12.07;5.25;;;20.60;46.90;;;;;;1825042;77;21082;-76
2022/04/26 07:04:30;;;;;;;7.72;4.87;;;20.60;46.80;;;;;;1816249;79;21144;-77
2022/04/26 07:06:58;;;;;;;8.55;5.10;;;20.60;46.80;;;;;;1816071;79;21442;-76
2022/04/26 07:09:25;;;;;;;8.93;5.25;;;20.60;46.80;;;;;;1816040;79;21152;-76
2022/04/26 07:11:53;;;;;;;10.40;5.47;;;20.60;46.90;;;;;;1820822;77;21120;-77
2022/04/26 07:14:20;;;;;;;8.45;5.08;;;20.60;46.90;;;;;;1816153;77;21077;-75
2022/04/26 07:16:49;;;;;;;10.43;5.20;;;20.60;46.90;;;;;;1827698;77;21124;-77
2022/04/26 07:19:17;;;;;;;5.75;4.72;;;20.60;46.90;;;;;;1843444;77;21624;-75
2022/04/26 07:21:46;;;;;;;12.20;4.65;;;20.60;46.90;;;;;;1846216;77;21097;-75
2022/04/26 07:24:14;;;;;;;9.98;5.05;;;20.60;47.30;;;;;;1847023;77;21132;-76
2022/04/26 07:26:43;;;;;;;8.75;5.25;;;20.60;47.10;;;;;;1846860;77;21073;-76
2022/04/26 07:29:10;;;;;;;11.65;5.10;;;20.60;47.20;;;;;;1846704;77;21129;-76
2022/04/26 07:31:38;;;;;;;12.43;5.83;;;20.60;47.30;;;;;;1846871;76;21132;-76
2022/04/26 07:34:21;;;;;;;6.75;5.30;;;20.60;47.30;;;;;;1846923;77;21605;-75
2022/04/26 07:36:53;;;;;;;9.35;5.58;;;20.60;47.40;;;;;;1846978;77;21148;-77
2022/04/26 07:39:21;;;;;;;9.63;5.65;;;20.60;47.30;;;;;;1846157;76;21101;-76
2022/04/26 07:41:48;;;;;;;10.95;5.67;;;20.60;47.40;;;;;;1846497;77;21143;-77
2022/04/26 07:44:16;;;;;;;11.68;5.20;;;20.60;47.50;;;;;;1844470;76;21151;-76
2022/04/26 07:46:47;;;;;;;8.38;5.50;;;20.60;47.50;;;;;;1846693;77;21053;-76
2022/04/26 07:49:15;;;;;;;12.78;4.87;;;20.60;47.50;;;;;;1846879;76;21591;-76
2022/04/26 07:51:43;;;;;;;8.43;5.75;;;20.70;47.60;;;;;;1847032;77;21096;-76
2022/04/26 07:54:10;;;;;;;13.43;5.28;;;20.70;47.70;;;;;;1870765;75;21115;-75
2022/04/26 07:56:37;;;;;;;13.88;5.87;;;20.70;47.80;;;;;;1893133;76;21071;-77
2022/04/26 07:59:05;;;;;;;12.82;5.15;;;20.70;47.90;;;;;;1893554;76;21130;-77
2022/04/26 08:01:32;;;;;;;11.28;5.50;;;20.70;47.80;;;;;;1878349;76;21182;-76
2022/04/26 08:04:00;;;;;;;15.13;5.08;;;20.70;47.80;;;;;;1862185;77;21154;-75
2022/04/26 08:06:27;;;;;;;14.05;5.83;;;20.70;47.80;;;;;;1862693;77;21179;-76
2022/04/26 08:08:55;;;;;;;10.35;5.42;;;20.70;47.80;;;;;;1862768;77;21089;-75
2022/04/26 08:11:23;;;;;;;9.25;4.80;;;20.70;47.80;;;;;;1862772;77;21507;-76
2022/04/26 08:13:50;;;;;;;11.40;5.80;;;20.70;47.80;;;;;;1862292;77;21639;-77
2022/04/26 08:16:17;;;;;;;14.00;5.65;;;20.70;47.80;;;;;;1862404;77;21056;-76
2022/04/26 08:18:45;;;;;;;11.78;5.47;;;20.70;47.80;;;;;;1841230;77;21147;-77
2022/04/26 08:21:17;;;;;;;8.43;5.12;;;20.70;47.80;;;;;;1831330;78;21096;-77
2022/04/26 08:29:15;;;;;;;11.10;6.08;;;20.70;47.90;;;;;;1831277;78;21235;-75
2022/04/26 08:31:43;;;;;;;11.10;5.65;;;20.70;47.90;;;;;;1866611;76;21123;-77
2022/04/26 08:34:10;;;;;;;11.53;6.15;;;20.70;47.90;;;;;;1894273;76;21032;-76
2022/04/26 08:36:37;;;;;;;10.28;5.22;;;20.70;47.90;;;;;;1885673;75;21074;-76
2022/04/26 08:39:05;;;;;;;12.18;5.45;;;20.70;48.00;;;;;;1862107;77;21101;-76
2022/04/26 08:41:34;;;;;;;7.85;5.45;;;20.70;48.00;;;;;;1862156;77;21107;-77
2022/04/26 08:44:01;;;;;;;10.30;5.33;;;20.70;48.00;;;;;;1861443;75;21174;-76
2022/04/26 08:50:59;;;;;;;7.42;5.42;;;20.70;47.90;;;;;;1862616;76;21127;-76
2022/04/26 08:51:44;;;;;;;10.32;5.40;;;20.70;47.90;;;;;;1862354;77;21599;-76
2022/04/26 08:54:12;;;;;;;11.55;5.45;;;20.70;47.90;;;;;;1859153;77;21558;-76
2022/04/26 08:56:40;;;;;;;11.63;5.28;;;20.70;47.90;;;;;;1847190;77;21136;-76
2022/04/26 08:59:07;;;;;;;9.15;5.42;;;20.70;47.90;;;;;;1846083;77;21120;-76
2022/04/26 09:01:34;;;;;;;11.80;5.22;;;20.70;47.90;;;;;;1831104;77;21125;-78
2022/04/26 09:04:02;;;;;;;7.17;4.83;;;20.70;47.90;;;;;;1816361;79;21122;-76
2022/04/26 09:06:45;;;;;;;7.78;5.12;;;20.70;47.90;;;;;;1816290;79;21141;-76
2022/04/26 09:09:18;;;;;;;9.10;5.20;;;20.70;47.90;;;;;;1816302;79;21137;-76
2022/04/26 09:11:46;;;;;;;7.42;4.85;;;20.70;48.00;;;;;;1816146;79;21200;-76
2022/04/26 09:14:33;;;;;;;11.55;6.45;;;20.70;48.00;;;;;;1816333;79;21141;-76
2022/04/26 09:17:07;;;;;;;10.72;5.62;;;20.70;48.00;;;;;;1816118;79;21188;-76
2022/04/26 09:19:47;;;;;;;9.00;4.92;;;20.70;48.00;;;;;;1816122;79;21198;-76
2022/04/26 09:22:20;;;;;;;9.03;5.50;;;20.70;48.00;;;;;;1815831;79;21154;-75
2022/04/26 09:25:03;;;;;;;8.50;4.80;;;20.70;48.10;;;;;;1815622;79;21174;-76
2022/04/26 09:27:29;;;;;;;7.87;5.40;;;20.70;48.00;;;;;;1816301;78;21116;-76
2022/04/26 09:29:57;;;;;;;7.60;5.08;;;20.70;48.10;;;;;;1816384;79;21096;-76
2022/04/26 09:32:24;;;;;;;11.93;5.28;;;20.70;47.90;;;;;;1822035;77;21122;-77
2022/04/26 09:34:52;;;;;;;8.05;4.85;;;20.70;47.90;;;;;;1816105;79;21788;-76
2022/04/26 09:37:19;;;;;;;9.00;5.17;;;20.70;47.90;;;;;;1815929;78;21094;-76
2022/04/26 09:40:06;;;;;;;7.08;4.72;;;20.70;47.90;;;;;;1815977;79;21085;-77
2022/04/26 09:42:36;;;;;;;8.18;4.90;;;20.70;47.90;;;;;;1823943;76;21141;-76
2022/04/26 09:45:08;;;;;;;6.10;4.30;;;20.80;48.00;;;;;;1816603;79;21606;-76
2022/04/26 09:47:39;;;;;;;7.72;4.47;;;20.80;47.90;;;;;;1823119;77;21093;-77
2022/04/26 09:50:10;;;;;;;9.43;5.28;;;20.80;47.80;;;;;;1816236;79;21139;-76
2022/04/26 09:52:38;;;;;;;7.75;4.85;;;20.80;47.90;;;;;;1814220;77;21511;-76
2022/04/26 09:55:06;;;;;;;7.42;5.40;;;20.70;47.90;;;;;;1816238;77;21117;-75
2022/04/26 09:57:33;;;;;;;6.70;4.92;;;20.70;47.90;;;;;;1816470;78;21038;-76
2022/04/26 10:00:02;;;;;;;6.47;4.85;;;20.70;47.90;;;;;;1816516;79;21100;-75
2022/04/26 10:02:32;;;;;;;7.08;4.65;;;20.70;48.00;;;;;;1843580;77;21241;-75
2022/04/26 10:05:04;;;;;;;5.12;4.60;;;20.70;48.00;;;;;;1846070;77;22169;-76
2022/04/26 10:07:40;;;;;;;6.37;4.42;;;20.70;47.90;;;;;;1846767;77;21100;-75
2022/04/26 10:10:09;;;;;;;9.10;4.90;;;20.70;47.90;;;;;;1847103;77;21499;-76
2022/04/26 10:12:36;;;;;;;7.67;5.25;;;20.70;47.90;;;;;;1847137;77;21140;-75
2022/04/26 10:15:04;;;;;;;8.05;4.90;;;20.70;48.00;;;;;;1847769;75;21117;-76
2022/04/26 10:17:32;;;;;;;5.70;4.53;;;20.70;47.90;;;;;;1836072;77;21084;-75
2022/04/26 10:20:03;;;;;;;5.67;4.42;;;20.80;47.90;;;;;;1849746;76;21120;-76
2022/04/26 10:22:50;;;;;;;7.33;5.20;;;20.80;47.80;;;;;;1854381;76;21526;-75
2022/04/26 10:25:21;;;;;;;6.12;4.08;;;20.70;47.80;;;;;;1812314;77;21106;-76
2022/04/26 10:27:48;;;;;;;7.22;5.08;;;20.70;47.80;;;;;;1850336;77;21508;-75
2022/04/26 10:30:16;;;;;;;5.47;4.22;;;20.80;47.90;;;;;;1862784;76;21605;-76
2022/04/26 10:32:43;;;;;;;11.33;4.30;;;20.80;47.80;;;;;;1873096;76;21164;-75
2022/04/26 10:35:25;;;;;;;8.68;4.67;;;20.80;47.80;;;;;;1840409;77;21524;-76
2022/04/26 10:38:14;;;;;;;7.08;4.55;;;20.80;47.80;;;;;;1830476;76;22165;-75
2022/04/26 10:41:03;;;;;;;5.05;4.42;;;20.80;47.80;;;;;;1866989;76;21054;-75
2022/04/26 10:43:31;;;;;;;7.17;4.62;;;20.80;47.80;;;;;;1852044;76;21476;-76
2022/04/26 10:46:09;;;;;;;5.83;4.45;;;20.70;47.80;;;;;;1860596;76;21112;-76
2022/04/26 10:48:37;;;;;;;4.42;4.03;;;20.70;47.80;;;;;;1815961;77;21233;-76
2022/04/26 10:51:35;;;;;;;6.87;4.45;;;20.70;47.90;;;;;;1816974;78;21173;-76
2022/04/26 10:54:03;;;;;;;7.03;4.65;;;20.70;47.90;;;;;;1850112;77;21188;-76
2022/04/26 10:56:34;;;;;;;6.47;4.50;;;20.70;47.90;;;;;;1835315;77;21165;-76
2022/04/26 10:59:01;;;;;;;;;;;20.70;47.90;;;;;;1832847;77;21109;-76
2022/04/26 11:01:28;;;;;;;6.67;4.40;;;20.70;47.80;;;;;;1819018;78;20199;-75
2022/04/26 11:03:57;;;;;;;6.17;4.40;;;20.80;47.80;;;;;;1826922;78;21594;-76
2022/04/26 11:06:36;;;;;;;6.65;4.62;;;20.80;47.80;;;;;;1834835;78;21116;-75
2022/04/26 11:09:16;;;;;;;8.30;4.40;;;20.80;47.80;;;;;;1834028;77;21137;-76
2022/04/26 11:11:51;;;;;;;14.03;4.65;;;20.80;47.80;;;;;;1834864;77;21070;-76
2022/04/26 11:14:20;;;;;;;8.78;4.85;;;20.80;47.80;;;;;;1834475;78;21178;-76
2022/04/26 11:16:58;;;;;;;9.98;4.75;;;20.80;47.80;;;;;;1832391;78;21531;-76
2022/04/26 11:19:36;;;;;;;8.03;4.75;;;20.80;47.80;;;;;;1804931;78;21198;-76
2022/04/26 11:22:08;;;;;;;7.37;4.40;;;20.80;47.80;;;;;;1828141;78;21171;-76
2022/04/26 11:30:07;;;;;;;6.55;4.40;;;20.80;47.80;;;;;;1804787;79;21251;-77
2022/04/26 11:32:42;;;;;;;8.15;4.47;;;20.80;47.80;;;;;;1832626;78;21690;-77
2022/04/26 11:35:06;;;;;;;6.22;4.12;;;20.80;47.80;;;;;;1810504;78;21204;-76
2022/04/26 11:37:35;;;;;;;8.88;4.58;;;20.80;47.80;;;;;;1831131;78;21128;-77
2022/04/26 11:40:03;;;;;;;6.55;4.72;;;20.80;47.80;;;;;;1809047;78;21827;-76
2022/04/26 11:42:34;;;;;;;6.80;4.10;;;20.80;47.80;;;;;;1808488;78;21152;-77
2022/04/26 11:45:05;;;;;;;9.78;4.35;;;20.80;47.80;;;;;;1812099;78;21093;-77
2022/04/26 11:47:41;;;;;;;7.58;4.40;;;20.80;47.80;;;;;;1815146;78;21191;-76
2022/04/26 11:50:10;;;;;;;7.65;4.30;;;20.80;47.80;;;;;;1834439;78;21198;-76
2022/04/26 11:52:37;;;;;;;11.60;4.58;;;20.80;47.80;;;;;;1834356;78;21705;-76
2022/04/26 11:55:06;;;;;;;4.92;3.83;;;20.80;47.80;;;;;;1833744;78;21651;-76
2022/04/26 11:57:34;;;;;;;5.70;4.33;;;20.80;47.80;;;;;;1829345;77;21247;-77
2022/04/26 12:00:01;;;;;;;5.80;4.10;;;20.80;47.80;;;;;;1813169;79;21148;-76
2022/04/26 12:02:29;;;;;;;7.17;4.37;;;20.80;47.80;;;;;;1789950;79;22310;-76
2022/04/26 12:04:57;;;;;;;5.70;4.15;;;20.80;47.80;;;;;;1813222;79;22304;-76
2022/04/26 12:07:24;;;;;;;6.05;4.10;;;20.80;47.70;;;;;;1813813;78;21081;-76
2022/04/26 12:09:52;;;;;;;5.45;3.60;;;20.80;47.70;;;;;;1813901;79;21442;-76
2022/04/26 12:12:20;;;;;;;6.70;3.80;;;20.80;47.70;;;;;;1813688;78;21442;-77
2022/04/26 12:14:47;;;;;;;6.22;4.65;;;20.80;47.70;;;;;;1814355;79;21136;-76
2022/04/26 12:17:29;;;;;;;6.87;4.22;;;20.80;47.80;;;;;;1769564;78;21182;-75
2022/04/26 12:19:53;;;;;;;5.37;4.22;;;20.80;47.90;;;;;;1843083;78;21741;-77
2022/04/26 12:22:25;;;;;;;4.80;3.75;;;20.80;47.80;;;;;;1844295;77;21072;-75
2022/04/26 12:24:51;;;;;;;4.95;3.87;;;20.80;47.80;;;;;;1843098;78;21144;-75
2022/04/26 12:27:22;;;;;;;5.35;3.83;;;20.80;47.80;;;;;;1843748;77;21199;-76
2022/04/26 12:29:52;;;;;;;7.97;3.55;;;20.80;47.80;;;;;;1844482;78;21190;-76
2022/04/26 12:32:21;;;;;;;6.07;4.10;;;20.80;47.80;;;;;;1843071;77;21083;-77
2022/04/26 12:34:53;;;;;;;9.28;3.98;;;20.80;47.80;;;;;;1840338;77;21147;-75
2022/04/26 12:37:23;;;;;;;6.00;4.00;;;20.80;47.90;;;;;;1840907;78;21111;-76
2022/04/26 12:39:58;;;;;;;7.70;3.62;;;20.80;47.80;;;;;;1836046;78;21088;-75
2022/04/26 12:42:34;;;;;;;4.25;3.60;;;20.80;47.80;;;;;;1841147;78;21135;-77
2022/04/26 12:45:03;;;;;;;5.83;4.20;;;20.80;47.90;;;;;;1835438;78;21268;-76
2022/04/26 12:50:29;;;;;;;7.15;3.42;;;20.90;47.80;;;;;;1810859;79;21598;-76
2022/04/26 12:53:06;;;;;;;6.05;3.92;;;20.90;47.70;;;;;;1816527;77;21133;-75
2022/04/26 12:55:41;;;;;;;6.85;3.80;;;20.90;48.30;;;;;;1842453;77;21970;-76
2022/04/26 12:58:09;;;;;;;5.20;3.87;;;20.90;47.70;;;;;;1846009;77;21693;-76
2022/04/26 13:00:42;;;;;;;4.20;3.47;;;20.90;47.70;;;;;;1846455;77;21376;-75
2022/04/26 13:03:07;;;;;;;5.95;3.67;;;20.90;47.70;;;;;;1845204;77;21121;-76
2022/04/26 13:05:45;;;;;;;5.40;3.37;;;20.90;47.70;;;;;;1846520;76;21104;-76
2022/04/26 13:08:15;;;;;;;5.83;3.35;;;20.90;47.70;;;;;;1845879;77;21202;-76
2022/04/26 13:10:42;;;;;;;4.30;3.65;;;20.90;47.70;;;;;;1846248;77;21207;-76
2022/04/26 13:13:10;;;;;;;4.45;3.72;;;20.90;47.70;;;;;;1846670;77;21109;-77
2022/04/26 13:15:41;;;;;;;6.62;3.87;;;20.90;47.70;;;;;;1846710;77;21093;-76
2022/04/26 13:18:07;;;;;;;6.15;3.52;;;20.90;47.70;;;;;;1846526;77;21235;-78
2022/04/26 13:20:35;;;;;;;4.75;3.35;;;20.90;47.70;;;;;;1847126;77;21194;-77
2022/04/26 13:23:02;;;;;;;4.12;3.72;;;20.90;47.80;;;;;;1846883;77;21558;-75
2022/04/26 13:25:30;;;;;;;4.08;3.33;;;20.90;47.70;;;;;;1846821;77;21064;-76
2022/04/26 13:27:57;;;;;;;4.47;3.47;;;20.90;47.80;;;;;;1846721;77;21093;-75
2022/04/26 13:30:24;;;;;;;6.12;3.67;;;20.90;47.70;;;;;;1846782;77;21108;-77
2022/04/26 13:32:53;;;;;;;8.35;3.85;;;20.90;47.70;;;;;;1846852;76;21577;-76
2022/04/26 13:35:21;;;;;;;4.78;3.70;;;20.90;47.70;;;;;;1846860;76;21073;-76
2022/04/26 13:37:50;;;;;;;3.40;3.05;;;20.90;48.20;;;;;;1846618;77;21190;-76
2022/04/26 13:40:17;;;;;;;3.55;3.25;;;20.90;47.60;;;;;;1846351;77;21132;-76
2022/04/26 13:42:45;;;;;;;6.03;3.87;;;20.90;47.60;;;;;;1846382;77;21202;-77
2022/04/26 13:45:12;;;;;;;5.25;3.47;;;20.90;47.60;;;;;;1846927;77;21394;-76
2022/04/26 13:47:40;;;;;;;4.62;3.83;;;20.90;47.50;;;;;;1847925;75;21107;-76
2022/04/26 13:50:08;;;;;;;4.40;3.40;;;20.90;47.50;;;;;;1877219;76;21140;-77
2022/04/26 13:52:35;;;;;;;4.37;3.40;;;20.90;47.50;;;;;;1877742;76;21167;-77
2022/04/26 13:55:03;;;;;;;4.97;3.60;;;20.90;47.50;;;;;;1877847;76;21098;-77
2022/04/26 13:57:30;;;;;;;4.05;3.62;;;20.90;47.60;;;;;;1876195;76;21643;-76
2022/04/26 13:59:58;;;;;;;3.92;3.25;;;20.90;47.70;;;;;;1857521;77;21099;-77
2022/04/26 14:02:25;;;;;;;4.47;3.27;;;20.90;47.70;;;;;;1884958;76;21134;-77
2022/04/26 14:04:53;;;;;;;4.67;3.45;;;20.90;47.80;;;;;;1888850;76;21094;-77
2022/04/26 14:07:20;;;;;;;3.85;3.45;;;20.90;47.70;;;;;;1889001;76;21099;-76
2022/04/26 14:09:47;;;;;;;3.45;3.08;;;20.90;47.70;;;;;;1889034;76;21044;-77
2022/04/26 14:12:18;;;;;;;5.37;4.00;;;20.90;47.80;;;;;;1889522;76;21184;-76
2022/04/26 14:22:59;;;;;;;4.62;3.75;;;20.90;48.00;;;;;;1857427;77;21100;-76
2022/04/26 14:25:26;;;;;;;3.22;2.92;;;21.00;47.90;;;;;;1857540;77;21104;-76
2022/04/26 14:27:54;;;;;;;11.10;3.35;;;21.00;47.90;;;;;;1857193;77;21732;-78
2022/04/26 14:30:21;;;;;;;5.37;3.37;;;21.00;48.10;;;;;;1856919;76;21392;-77
2022/04/26 14:32:49;;;;;;;5.40;3.72;;;21.00;47.80;;;;;;1888952;76;21173;-77
2022/04/26 14:35:16;;;;;;;3.12;2.83;;;21.00;47.80;;;;;;1889677;76;21114;-77
2022/04/26 14:37:43;;;;;;;3.83;3.30;;;21.00;47.80;;;;;;1889578;76;21071;-76
2022/04/26 14:40:12;;;;;;;4.85;3.25;;;21.00;47.70;;;;;;1889639;76;21110;-77
2022/04/26 14:42:45;;;;;;;4.25;3.83;;;21.00;47.80;;;;;;1869233;76;21702;-77
2022/04/26 14:45:08;;;;;;;5.53;3.50;;;21.00;47.80;;;;;;1856046;77;21135;-77
2022/04/26 14:47:35;;;;;;;3.92;2.95;;;21.00;47.80;;;;;;1850756;77;21652;-76
2022/04/26 14:50:04;;;;;;;4.20;3.58;;;20.90;47.80;;;;;;1826895;78;21143;-77
2022/04/26 14:52:32;;;;;;;4.15;3.02;;;21.00;47.80;;;;;;1844058;77;21077;-77
2022/04/26 14:55:01;;;;;;;4.28;3.37;;;20.90;47.80;;;;;;1857609;77;21110;-76
2022/04/26 14:57:28;;;;;;;4.55;3.20;;;20.90;47.70;;;;;;1855106;76;21148;-77
2022/04/26 14:59:56;;;;;;;3.45;3.10;;;21.00;47.70;;;;;;1844743;76;21093;-76
2022/04/26 15:02:23;;;;;;;3.60;3.22;;;21.00;47.70;;;;;;1844172;77;21128;-77
2022/04/26 15:04:51;;;;;;;4.50;3.72;;;21.00;47.70;;;;;;1844355;77;21190;-77
2022/04/26 15:07:19;;;;;;;5.05;3.50;;;21.00;47.70;;;;;;1844088;78;21194;-76
2022/04/26 15:09:52;;;;;;;5.58;3.35;;;21.00;48.10;;;;;;1844146;77;21068;-78
2022/04/26 15:17:48;;;;;;;4.60;3.52;;;21.00;47.60;;;;;;1840143;77;21097;-73
2022/04/26 15:20:18;;;;;;;5.25;2.90;;;21.00;47.60;;;;;;1812072;78;21113;-74
2022/04/26 15:22:46;;;;;;;5.07;3.63;;;21.00;47.70;;;;;;1824392;78;21090;-78
2022/04/26 15:25:14;;;;;;;3.67;3.10;;;21.00;47.70;;;;;;1841131;77;21836;-73
2022/04/26 15:27:41;;;;;;;8.43;3.17;;;21.00;47.70;;;;;;1837400;78;21102;-73
2022/04/26 15:30:10;;;;;;;7.17;3.10;;;21.00;47.70;;;;;;1835251;77;21106;-73
2022/04/26 15:32:37;;;;;;;8.05;3.85;;;21.00;47.80;;;;;;1836681;77;21083;-73
2022/04/26 15:35:05;;;;;;;11.50;3.20;;;21.00;48.20;;;;;;1835780;77;21481;-72
2022/04/26 15:37:32;;;;;;;6.00;3.45;;;21.10;48.00;;;;;;1837017;78;21164;-72
2022/04/26 15:39:59;;;;;;;9.23;3.22;;;21.00;48.30;;;;;;1835082;77;22228;-72
2022/04/26 15:42:27;;;;;;;5.67;3.42;;;21.00;48.20;;;;;;1836999;77;21174;-72
2022/04/26 15:44:54;;;;;;;6.40;3.80;;;21.00;48.50;;;;;;1840748;78;21154;-72
2022/04/26 15:47:21;;;;;;;4.17;3.05;;;21.00;48.50;;;;;;1839397;77;21531;-72
2022/04/26 15:49:48;;;;;;;6.47;2.85;;;21.00;48.50;;;;;;1819860;77;21156;-73
2022/04/26 15:52:16;;;;;;;8.63;3.42;;;21.00;48.60;;;;;;1837526;77;22317;-73
2022/04/26 15:54:43;;;;;;;9.48;3.10;;;21.10;48.60;;;;;;1841461;77;21120;-75
2022/04/26 15:57:11;;;;;;;5.97;3.75;;;21.10;48.50;;;;;;1836098;78;21094;-74
2022/04/26 15:59:39;;;;;;;8.13;3.33;;;21.20;48.40;;;;;;1840563;77;21221;-76
2022/04/26 16:02:07;;;;;;;6.55;2.87;;;21.10;49.00;;;;;;1825894;77;21166;-73
2022/04/26 16:04:35;;;;;;;12.13;3.58;;;21.20;48.40;;;;;;1752596;81;21217;-79
2022/04/26 16:07:02;;;;;;;6.15;3.00;;;21.20;48.40;;;;;;1832460;77;21493;-74
2022/04/26 16:20:30;;;;;;;12.80;3.92;;;21.30;49.70;;;;;;1814604;79;21122;-74
2022/04/26 16:22:59;;;;;;;12.00;4.67;;;21.20;51.10;;;;;;1815304;78;21563;-73
2022/04/26 16:25:27;;;;;;;13.90;4.33;;;21.30;52.40;;;;;;1815464;78;21108;-73
2022/04/26 16:27:55;;;;;;;9.03;4.78;;;21.20;53.60;;;;;;1815238;78;21708;-73
2022/04/26 16:30:22;;;;;;;19.17;5.95;;;21.30;53.40;;;;;;1814735;77;21085;-73
2022/04/26 16:32:49;;;;;;;12.58;6.47;;;21.30;54.60;;;;;;1824243;77;21625;-76
2022/04/26 16:35:17;;;;;;;15.20;6.83;;;21.30;55.70;;;;;;1815869;79;21076;-77
2022/04/26 16:37:44;;;;;;;13.05;5.95;;;21.30;56.20;;;;;;1837902;76;21087;-72
2022/04/26 16:40:12;;;;;;;15.68;6.55;;;21.30;56.30;;;;;;1843979;78;22185;-74
2022/04/26 16:42:39;;;;;;;17.35;7.75;;;21.30;57.20;;;;;;1830314;76;21182;-74
2022/04/26 16:45:08;;;;;;;14.75;8.50;;;21.30;56.80;;;;;;1826893;77;21514;-72
2022/04/26 16:47:35;;;;;;;16.17;8.63;;;21.30;57.00;;;;;;1837560;77;21120;-77
2022/04/26 16:50:04;;;;;;;13.18;7.70;;;21.30;57.00;;;;;;1846507;77;21088;-75
2022/04/26 16:52:31;;;;;;;14.78;8.15;;;21.30;56.90;;;;;;1833569;77;21664;-76
2022/04/26 16:54:59;;;;;;;19.60;7.17;;;21.40;55.40;;;;;;1816916;77;21088;-76
2022/04/26 16:57:28;;;;;;;14.20;6.83;;;21.40;55.70;;;;;;1830653;77;21558;-76
2022/04/26 16:59:56;;;;;;;10.93;6.70;;;21.30;55.60;;;;;;1847149;76;21195;-76
2022/04/26 17:02:25;;;;;;;10.93;6.15;;;21.30;55.20;;;;;;1820873;77;21132;-79
2022/04/26 17:04:52;;;;;;;13.80;6.42;;;21.40;54.50;;;;;;1843853;76;21138;-78
2022/04/26 17:07:20;;;;;;;19.98;6.55;;;21.40;54.30;;;;;;1843258;77;21107;-75
2022/04/26 17:09:47;;;;;;;11.65;6.05;;;21.40;54.10;;;;;;1817417;76;21171;-76
2022/04/26 17:12:15;;;;;;;13.98;6.95;;;21.40;53.30;;;;;;1825152;77;21163;-74
2022/04/26 17:14:42;;;;;;;14.38;6.65;;;21.50;52.80;;;;;;1840526;76;21125;-75